Cedar Creek (Missouri), Pleasant View (06919500)

StateMissouriCurrentPotential (301 cfs)
RiverCedar CreekFlood - The river is flooding. Obstacles can be treacherous or deadly. The river should be avoided at this stage for casual trips and definitely for the inexperienced. Trips should be attempted only with protective gear and equipment.Flood(none)
Updated2019-10-13 19:30 (45 minutes ago)High - The river is high and potentially dangerous, especially for the young and / or inexperienced. Normal stream obstacles are sometimes difficult to navigate. Extended distances can be attempted, but canoe travel may not be advisable.High(none)
Discharge301 cfs (median: 13 cfs)Good - Conditions are ideal for a canoe or kayak. Boats typically will drag on fewer than one-quarter of riffles, if at all, and portages are unnecessary or rare. Normal float lengths can be attempted without a problem.Good(none)
Height5.13 feetLow - River is low but can still be floated. Some riffles are okay but most come with significant dragging and might need a portage. Float lengths should be reduced to accommodate low flow, dragging, and portages.Low(none)
TrendFalling (falling over 24 hours)Poor - River is too low to float comfortably. Most or all riffles will drag or must be portaged and some obstacles (such as slick shelf rock) cause undue problems. Avoid the river at this stage for casual paddling trips.Poor(none)
USGSExternal icon USGS Site for Pleasant View (06919500)LocationExternal icon Google Maps

Trending Data

Plot Image
ObservationHeightDischargeMaximum
Discharge
Minimum
Discharge
Mean
Discharge
P05P10P20P25P50
(Median)
P75P80P90P95
2019-10-13 19:30 5.13 301 1580 (1970) 0 (1954) 109 0 0 1 1 13 78 116 245 663
2019-10-13 18:30 5.15 305 1580 (1970) 0 (1954) 109 0 0 1 1 13 78 116 245 663
2019-10-13 17:30 5.18 312 1580 (1970) 0 (1954) 109 0 0 1 1 13 78 116 245 663
2019-10-13 16:30 5.21 319 1580 (1970) 0 (1954) 109 0 0 1 1 13 78 116 245 663
2019-10-13 15:30 5.23 324 1580 (1970) 0 (1954) 109 0 0 1 1 13 78 116 245 663
2019-10-13 14:30 5.26 331 1580 (1970) 0 (1954) 109 0 0 1 1 13 78 116 245 663
2019-10-13 13:30 5.29 338 1580 (1970) 0 (1954) 109 0 0 1 1 13 78 116 245 663
2019-10-13 12:30 5.32 345 1580 (1970) 0 (1954) 109 0 0 1 1 13 78 116 245 663
2019-10-13 11:30 5.35 352 1580 (1970) 0 (1954) 109 0 0 1 1 13 78 116 245 663
2019-10-13 10:30 5.38 360 1580 (1970) 0 (1954) 109 0 0 1 1 13 78 116 245 663
2019-10-13 09:30 5.41 367 1580 (1970) 0 (1954) 109 0 0 1 1 13 78 116 245 663
2019-10-13 08:30 5.44 375 1580 (1970) 0 (1954) 109 0 0 1 1 13 78 116 245 663
2019-10-13 07:30 5.47 383 1580 (1970) 0 (1954) 109 0 0 1 1 13 78 116 245 663
2019-10-13 06:30 5.50 390 1580 (1970) 0 (1954) 109 0 0 1 1 13 78 116 245 663
2019-10-13 05:30 5.53 398 1580 (1970) 0 (1954) 109 0 0 1 1 13 78 116 245 663
2019-10-13 04:30 5.56 406 1580 (1970) 0 (1954) 109 0 0 1 1 13 78 116 245 663
2019-10-13 03:30 5.60 417 1580 (1970) 0 (1954) 109 0 0 1 1 13 78 116 245 663
2019-10-13 02:30 5.63 425 1580 (1970) 0 (1954) 109 0 0 1 1 13 78 116 245 663
2019-10-13 01:30 5.67 436 1580 (1970) 0 (1954) 109 0 0 1 1 13 78 116 245 663
2019-10-13 00:30 5.70 444 1580 (1970) 0 (1954) 109 0 0 1 1 13 78 116 245 663
2019-10-12 23:30 5.74 455 1920 (1955) 0 (1954) 105 0 0 1 1 12 70 106 319 625
2019-10-12 22:30 5.78 467 1920 (1955) 0 (1954) 105 0 0 1 1 12 70 106 319 625
2019-10-12 21:30 5.83 481 1920 (1955) 0 (1954) 105 0 0 1 1 12 70 106 319 625
2019-10-12 20:30 5.88 496 1920 (1955) 0 (1954) 105 0 0 1 1 12 70 106 319 625
2019-10-12 19:30 5.92 508 1920 (1955) 0 (1954) 105 0 0 1 1 12 70 106 319 625
2019-10-12 18:30 5.97 523 1920 (1955) 0 (1954) 105 0 0 1 1 12 70 106 319 625
2019-10-12 17:30 6.02 538 1920 (1955) 0 (1954) 105 0 0 1 1 12 70 106 319 625
2019-10-12 16:30 6.08 557 1920 (1955) 0 (1954) 105 0 0 1 1 12 70 106 319 625
2019-10-12 15:30 6.13 573 1920 (1955) 0 (1954) 105 0 0 1 1 12 70 106 319 625
2019-10-12 14:30 6.18 589 1920 (1955) 0 (1954) 105 0 0 1 1 12 70 106 319 625
2019-10-12 13:30 6.23 606 1920 (1955) 0 (1954) 105 0 0 1 1 12 70 106 319 625
2019-10-12 12:30 6.27 619 1920 (1955) 0 (1954) 105 0 0 1 1 12 70 106 319 625
2019-10-12 11:30 6.31 632 1920 (1955) 0 (1954) 105 0 0 1 1 12 70 106 319 625
2019-10-12 10:30 6.34 643 1920 (1955) 0 (1954) 105 0 0 1 1 12 70 106 319 625
2019-10-12 09:30 6.37 653 1920 (1955) 0 (1954) 105 0 0 1 1 12 70 106 319 625
2019-10-12 08:30 6.40 663 1920 (1955) 0 (1954) 105 0 0 1 1 12 70 106 319 625
2019-10-12 07:30 6.43 674 1920 (1955) 0 (1954) 105 0 0 1 1 12 70 106 319 625
2019-10-12 06:30 6.46 684 1920 (1955) 0 (1954) 105 0 0 1 1 12 70 106 319 625
2019-10-12 05:30 6.49 695 1920 (1955) 0 (1954) 105 0 0 1 1 12 70 106 319 625
2019-10-12 04:30 6.53 709 1920 (1955) 0 (1954) 105 0 0 1 1 12 70 106 319 625
2019-10-12 03:30 6.58 728 1920 (1955) 0 (1954) 105 0 0 1 1 12 70 106 319 625
2019-10-12 02:30 6.63 746 1920 (1955) 0 (1954) 105 0 0 1 1 12 70 106 319 625
2019-10-12 01:30 6.68 765 1920 (1955) 0 (1954) 105 0 0 1 1 12 70 106 319 625
2019-10-12 00:30 6.72 780 1920 (1955) 0 (1954) 105 0 0 1 1 12 70 106 319 625
2019-10-11 23:30 6.77 799 3660 (2010) 0 (1954) 146 0 0 1 2 10 64 90 252 873
2019-10-11 22:30 6.80 810 3660 (2010) 0 (1954) 146 0 0 1 2 10 64 90 252 873
2019-10-11 21:30 6.84 826 3660 (2010) 0 (1954) 146 0 0 1 2 10 64 90 252 873
2019-10-11 20:30 6.87 838 3660 (2010) 0 (1954) 146 0 0 1 2 10 64 90 252 873
2019-10-11 19:30 6.90 850 3660 (2010) 0 (1954) 146 0 0 1 2 10 64 90 252 873
2019-10-11 18:30 6.95 870 3660 (2010) 0 (1954) 146 0 0 1 2 10 64 90 252 873
2019-10-11 17:30 7.00 890 3660 (2010) 0 (1954) 146 0 0 1 2 10 64 90 252 873
2019-10-11 16:30 7.06 915 3660 (2010) 0 (1954) 146 0 0 1 2 10 64 90 252 873
2019-10-11 15:30 7.11 936 3660 (2010) 0 (1954) 146 0 0 1 2 10 64 90 252 873
2019-10-11 14:30 7.14 948 3660 (2010) 0 (1954) 146 0 0 1 2 10 64 90 252 873
2019-10-11 13:30 7.16 957 3660 (2010) 0 (1954) 146 0 0 1 2 10 64 90 252 873
2019-10-11 12:30 7.15 953 3660 (2010) 0 (1954) 146 0 0 1 2 10 64 90 252 873
2019-10-11 11:30 7.11 936 3660 (2010) 0 (1954) 146 0 0 1 2 10 64 90 252 873
2019-10-11 10:30 7.01 894 3660 (2010) 0 (1954) 146 0 0 1 2 10 64 90 252 873
2019-10-11 09:30 6.89 846 3660 (2010) 0 (1954) 146 0 0 1 2 10 64 90 252 873
2019-10-11 08:30 6.73 784 3660 (2010) 0 (1954) 146 0 0 1 2 10 64 90 252 873
2019-10-11 07:30 6.60 735 3660 (2010) 0 (1954) 146 0 0 1 2 10 64 90 252 873
2019-10-11 06:30 6.50 699 3660 (2010) 0 (1954) 146 0 0 1 2 10 64 90 252 873
2019-10-11 05:30 6.42 670 3660 (2010) 0 (1954) 146 0 0 1 2 10 64 90 252 873
2019-10-11 04:30 6.35 646 3660 (2010) 0 (1954) 146 0 0 1 2 10 64 90 252 873
2019-10-11 03:30 6.28 622 3660 (2010) 0 (1954) 146 0 0 1 2 10 64 90 252 873
2019-10-11 02:30 6.20 596 3660 (2010) 0 (1954) 146 0 0 1 2 10 64 90 252 873
2019-10-11 01:30 6.12 570 3660 (2010) 0 (1954) 146 0 0 1 2 10 64 90 252 873
2019-10-11 00:30 6.05 548 3660 (2010) 0 (1954) 146 0 0 1 2 10 64 90 252 873
2019-10-10 23:30 6.04 545 9670 (2010) 0 (1954) 222 0 0 1 2 9 45 97 304 620
2019-10-10 22:30 6.08 557 9670 (2010) 0 (1954) 222 0 0 1 2 9 45 97 304 620
2019-10-10 21:30 6.11 567 9670 (2010) 0 (1954) 222 0 0 1 2 9 45 97 304 620
2019-10-10 20:30 6.09 560 9670 (2010) 0 (1954) 222 0 0 1 2 9 45 97 304 620
2019-10-10 19:30 5.97 523 9670 (2010) 0 (1954) 222 0 0 1 2 9 45 97 304 620
2019-10-10 18:30 5.72 450 9670 (2010) 0 (1954) 222 0 0 1 2 9 45 97 304 620
2019-10-10 17:30 5.46 380 9670 (2010) 0 (1954) 222 0 0 1 2 9 45 97 304 620
2019-10-10 16:30 5.24 326 9670 (2010) 0 (1954) 222 0 0 1 2 9 45 97 304 620
2019-10-10 15:30 4.94 260 9670 (2010) 0 (1954) 222 0 0 1 2 9 45 97 304 620
2019-10-10 14:30 4.58 191 9670 (2010) 0 (1954) 222 0 0 1 2 9 45 97 304 620
2019-10-10 13:30 4.21 132 9670 (2010) 0 (1954) 222 0 0 1 2 9 45 97 304 620
2019-10-10 12:30 4.02 102 9670 (2010) 0 (1954) 222 0 0 1 2 9 45 97 304 620
2019-10-10 11:30 3.93 89 9670 (2010) 0 (1954) 222 0 0 1 2 9 45 97 304 620
2019-10-10 10:30 3.90 85 9670 (2010) 0 (1954) 222 0 0 1 2 9 45 97 304 620
2019-10-10 09:30 3.90 85 9670 (2010) 0 (1954) 222 0 0 1 2 9 45 97 304 620
2019-10-10 08:30 3.91 86 9670 (2010) 0 (1954) 222 0 0 1 2 9 45 97 304 620
2019-10-10 07:30 3.91 86 9670 (2010) 0 (1954) 222 0 0 1 2 9 45 97 304 620
2019-10-10 06:30 3.91 86 9670 (2010) 0 (1954) 222 0 0 1 2 9 45 97 304 620
2019-10-10 05:30 3.92 87 9670 (2010) 0 (1954) 222 0 0 1 2 9 45 97 304 620
2019-10-10 04:30 3.92 87 9670 (2010) 0 (1954) 222 0 0 1 2 9 45 97 304 620
2019-10-10 03:30 3.93 89 9670 (2010) 0 (1954) 222 0 0 1 2 9 45 97 304 620
2019-10-10 02:30 3.95 92 9670 (2010) 0 (1954) 222 0 0 1 2 9 45 97 304 620
2019-10-10 01:30 3.95 92 9670 (2010) 0 (1954) 222 0 0 1 2 9 45 97 304 620
2019-10-10 00:30 3.96 93 9670 (2010) 0 (1954) 222 0 0 1 2 9 45 97 304 620
2019-10-09 23:30 3.97 94 12000 (2010) 0 (1954) 234 0 0 1 1 8 38 80 266 548
2019-10-09 22:30 3.98 96 12000 (2010) 0 (1954) 234 0 0 1 1 8 38 80 266 548
2019-10-09 21:30 4.00 99 12000 (2010) 0 (1954) 234 0 0 1 1 8 38 80 266 548
2019-10-09 20:30 4.00 99 12000 (2010) 0 (1954) 234 0 0 1 1 8 38 80 266 548
2019-10-09 19:30 4.02 102 12000 (2010) 0 (1954) 234 0 0 1 1 8 38 80 266 548
2019-10-09 18:30 4.03 103 12000 (2010) 0 (1954) 234 0 0 1 1 8 38 80 266 548
2019-10-09 17:30 4.04 105 12000 (2010) 0 (1954) 234 0 0 1 1 8 38 80 266 548
2019-10-09 16:30 4.05 106 12000 (2010) 0 (1954) 234 0 0 1 1 8 38 80 266 548
2019-10-09 15:30 4.07 109 12000 (2010) 0 (1954) 234 0 0 1 1 8 38 80 266 548
2019-10-09 14:30 4.08 111 12000 (2010) 0 (1954) 234 0 0 1 1 8 38 80 266 548
2019-10-09 13:30 4.09 113 12000 (2010) 0 (1954) 234 0 0 1 1 8 38 80 266 548
2019-10-09 12:30 4.10 114 12000 (2010) 0 (1954) 234 0 0 1 1 8 38 80 266 548
2019-10-09 11:30 4.12 118 12000 (2010) 0 (1954) 234 0 0 1 1 8 38 80 266 548
2019-10-09 10:30 4.13 119 12000 (2010) 0 (1954) 234 0 0 1 1 8 38 80 266 548
2019-10-09 09:30 4.14 121 12000 (2010) 0 (1954) 234 0 0 1 1 8 38 80 266 548
2019-10-09 08:30 4.15 123 12000 (2010) 0 (1954) 234 0 0 1 1 8 38 80 266 548
2019-10-09 07:30 4.17 126 12000 (2010) 0 (1954) 234 0 0 1 1 8 38 80 266 548
2019-10-09 06:30 4.18 127 12000 (2010) 0 (1954) 234 0 0 1 1 8 38 80 266 548
2019-10-09 05:30 4.19 129 12000 (2010) 0 (1954) 234 0 0 1 1 8 38 80 266 548
2019-10-09 04:30 4.21 132 12000 (2010) 0 (1954) 234 0 0 1 1 8 38 80 266 548
2019-10-09 03:30 4.22 133 12000 (2010) 0 (1954) 234 0 0 1 1 8 38 80 266 548
2019-10-09 02:30 4.24 136 12000 (2010) 0 (1954) 234 0 0 1 1 8 38 80 266 548
2019-10-09 01:30 4.25 137 12000 (2010) 0 (1954) 234 0 0 1 1 8 38 80 266 548
2019-10-09 00:30 4.27 140 12000 (2010) 0 (1954) 234 0 0 1 1 8 38 80 266 548
2019-10-08 23:30 4.29 143 4490 (1999) 0 (1954) 181 0 0 1 2 8 46 79 288 1120
2019-10-08 22:30 4.31 146 4490 (1999) 0 (1954) 181 0 0 1 2 8 46 79 288 1120
2019-10-08 21:30 4.32 148 4490 (1999) 0 (1954) 181 0 0 1 2 8 46 79 288 1120
2019-10-08 20:30 4.34 151 4490 (1999) 0 (1954) 181 0 0 1 2 8 46 79 288 1120
2019-10-08 19:30 4.35 153 4490 (1999) 0 (1954) 181 0 0 1 2 8 46 79 288 1120
2019-10-08 18:30 4.37 156 4490 (1999) 0 (1954) 181 0 0 1 2 8 46 79 288 1120
2019-10-08 17:30 4.38 157 4490 (1999) 0 (1954) 181 0 0 1 2 8 46 79 288 1120
2019-10-08 16:30 4.40 161 4490 (1999) 0 (1954) 181 0 0 1 2 8 46 79 288 1120
2019-10-08 15:30 4.41 162 4490 (1999) 0 (1954) 181 0 0 1 2 8 46 79 288 1120
2019-10-08 14:30 4.42 164 4490 (1999) 0 (1954) 181 0 0 1 2 8 46 79 288 1120
2019-10-08 13:30 4.43 165 4490 (1999) 0 (1954) 181 0 0 1 2 8 46 79 288 1120
2019-10-08 12:30 4.44 167 4490 (1999) 0 (1954) 181 0 0 1 2 8 46 79 288 1120
2019-10-08 11:30 4.46 170 4490 (1999) 0 (1954) 181 0 0 1 2 8 46 79 288 1120
2019-10-08 10:30 4.46 170 4490 (1999) 0 (1954) 181 0 0 1 2 8 46 79 288 1120
2019-10-08 09:30 4.46 170 4490 (1999) 0 (1954) 181 0 0 1 2 8 46 79 288 1120
2019-10-08 08:30 4.46 170 4490 (1999) 0 (1954) 181 0 0 1 2 8 46 79 288 1120
2019-10-08 07:30 4.46 170 4490 (1999) 0 (1954) 181 0 0 1 2 8 46 79 288 1120
2019-10-08 06:30 4.46 170 4490 (1999) 0 (1954) 181 0 0 1 2 8 46 79 288 1120
2019-10-08 05:30 4.46 170 4490 (1999) 0 (1954) 181 0 0 1 2 8 46 79 288 1120
2019-10-08 04:30 4.46 170 4490 (1999) 0 (1954) 181 0 0 1 2 8 46 79 288 1120
2019-10-08 03:30 4.47 172 4490 (1999) 0 (1954) 181 0 0 1 2 8 46 79 288 1120
2019-10-08 02:30 4.47 172 4490 (1999) 0 (1954) 181 0 0 1 2 8 46 79 288 1120
2019-10-08 01:30 4.48 174 4490 (1999) 0 (1954) 181 0 0 1 2 8 46 79 288 1120
2019-10-08 00:30 4.50 177 4490 (1999) 0 (1954) 181 0 0 1 2 8 46 79 288 1120
2019-10-07 23:30 4.51 179 10400 (1999) 0 (1954) 245 0 0 1 2 8 41 66 328 964
2019-10-07 22:30 4.53 182 10400 (1999) 0 (1954) 245 0 0 1 2 8 41 66 328 964
2019-10-07 21:30 4.55 185 10400 (1999) 0 (1954) 245 0 0 1 2 8 41 66 328 964
2019-10-07 20:30 4.58 191 10400 (1999) 0 (1954) 245 0 0 1 2 8 41 66 328 964
2019-10-07 19:30 4.60 194 10400 (1999) 0 (1954) 245 0 0 1 2 8 41 66 328 964
2019-10-07 18:30 4.63 200 10400 (1999) 0 (1954) 245 0 0 1 2 8 41 66 328 964
2019-10-07 17:30 4.65 203 10400 (1999) 0 (1954) 245 0 0 1 2 8 41 66 328 964
2019-10-07 16:30 4.68 209 10400 (1999) 0 (1954) 245 0 0 1 2 8 41 66 328 964
2019-10-07 15:30 4.70 212 10400 (1999) 0 (1954) 245 0 0 1 2 8 41 66 328 964
2019-10-07 14:30 4.72 216 10400 (1999) 0 (1954) 245 0 0 1 2 8 41 66 328 964
2019-10-07 13:30 4.74 220 10400 (1999) 0 (1954) 245 0 0 1 2 8 41 66 328 964
2019-10-07 12:30 4.76 224 10400 (1999) 0 (1954) 245 0 0 1 2 8 41 66 328 964
2019-10-07 11:30 4.76 224 10400 (1999) 0 (1954) 245 0 0 1 2 8 41 66 328 964
2019-10-07 10:30 4.75 222 10400 (1999) 0 (1954) 245 0 0 1 2 8 41 66 328 964
2019-10-07 09:30 4.72 216 10400 (1999) 0 (1954) 245 0 0 1 2 8 41 66 328 964
2019-10-07 08:30 4.63 200 10400 (1999) 0 (1954) 245 0 0 1 2 8 41 66 328 964
2019-10-07 07:30 4.50 177 10400 (1999) 0 (1954) 245 0 0 1 2 8 41 66 328 964
2019-10-07 06:30 4.30 145 10400 (1999) 0 (1954) 245 0 0 1 2 8 41 66 328 964
2019-10-07 05:30 4.08 111 10400 (1999) 0 (1954) 245 0 0 1 2 8 41 66 328 964
2019-10-07 04:30 3.93 89 10400 (1999) 0 (1954) 245 0 0 1 2 8 41 66 328 964
2019-10-07 03:30 3.87 81 10400 (1999) 0 (1954) 245 0 0 1 2 8 41 66 328 964
2019-10-07 02:30 3.86 79 10400 (1999) 0 (1954) 245 0 0 1 2 8 41 66 328 964
2019-10-07 01:30 3.86 79 10400 (1999) 0 (1954) 245 0 0 1 2 8 41 66 328 964
2019-10-07 00:30 3.87 81 10400 (1999) 0 (1954) 245 0 0 1 2 8 41 66 328 964
2019-10-06 23:30 3.87 81 18100 (1999) 0 (1954) 369 0 0 1 1 8 38 53 176 1520
2019-10-06 22:30 3.88 82 18100 (1999) 0 (1954) 369 0 0 1 1 8 38 53 176 1520
2019-10-06 21:30 3.89 83 18100 (1999) 0 (1954) 369 0 0 1 1 8 38 53 176 1520
2019-10-06 20:30 3.90 85 18100 (1999) 0 (1954) 369 0 0 1 1 8 38 53 176 1520
2019-10-06 19:30 3.90 85 18100 (1999) 0 (1954) 369 0 0 1 1 8 38 53 176 1520
2019-10-06 18:30 3.91 86 18100 (1999) 0 (1954) 369 0 0 1 1 8 38 53 176 1520
2019-10-06 17:30 3.92 87 18100 (1999) 0 (1954) 369 0 0 1 1 8 38 53 176 1520
2019-10-06 16:30 3.92 87 18100 (1999) 0 (1954) 369 0 0 1 1 8 38 53 176 1520
2019-10-06 15:30 3.93 89 18100 (1999) 0 (1954) 369 0 0 1 1 8 38 53 176 1520
2019-10-06 14:30 3.94 90 18100 (1999) 0 (1954) 369 0 0 1 1 8 38 53 176 1520
2019-10-06 13:30 3.94 90 18100 (1999) 0 (1954) 369 0 0 1 1 8 38 53 176 1520
2019-10-06 12:30 3.96 93 18100 (1999) 0 (1954) 369 0 0 1 1 8 38 53 176 1520
2019-10-06 11:30 3.96 93 18100 (1999) 0 (1954) 369 0 0 1 1 8 38 53 176 1520
2019-10-06 10:30 3.97 94 18100 (1999) 0 (1954) 369 0 0 1 1 8 38 53 176 1520
2019-10-06 09:30 3.98 96 18100 (1999) 0 (1954) 369 0 0 1 1 8 38 53 176 1520
2019-10-06 08:30 3.99 97 18100 (1999) 0 (1954) 369 0 0 1 1 8 38 53 176 1520
2019-10-06 07:30 4.00 99 18100 (1999) 0 (1954) 369 0 0 1 1 8 38 53 176 1520
2019-10-06 06:30 4.01 100 18100 (1999) 0 (1954) 369 0 0 1 1 8 38 53 176 1520
2019-10-06 05:30 4.02 102 18100 (1999) 0 (1954) 369 0 0 1 1 8 38 53 176 1520
2019-10-06 04:30 4.03 103 18100 (1999) 0 (1954) 369 0 0 1 1 8 38 53 176 1520
2019-10-06 03:30 4.04 105 18100 (1999) 0 (1954) 369 0 0 1 1 8 38 53 176 1520
2019-10-06 02:30 4.05 106 18100 (1999) 0 (1954) 369 0 0 1 1 8 38 53 176 1520
2019-10-06 01:30 4.06 108 18100 (1999) 0 (1954) 369 0 0 1 1 8 38 53 176 1520
2019-10-06 00:30 4.06 108 18100 (1999) 0 (1954) 369 0 0 1 1 8 38 53 176 1520

A total of 188 rows are displayed for years 1924 through 2018.

Trips for Cedar Creek (Missouri), Pleasant View (06919500)

DateStartEndDistanceConditionDischargeHeightFishingDetails

A total of 0 rows are displayed.

Condition Descriptions

Fishing Conditions

Fish Species

Notes

Classic Trip List

The classic River Trips application is still available for use. It is updated with the new system using a data retrofit. It is no longer maintained. The original River Trips application is no longer updated (as of 1 Dec 2016) but can be checked for errors or for the condition of the data before it was converted to the new system.